createdAt,value
2022-11-05T00:01:19.087Z,1.30
2022-11-05T00:03:20.892Z,1.20
2022-11-05T00:05:22.694Z,1.20
2022-11-05T00:07:42.119Z,1.30
2022-11-05T00:09:43.833Z,1.30
2022-11-05T00:11:45.541Z,1.17
2022-11-05T00:13:47.244Z,1.08
2022-11-05T00:15:48.932Z,1.17
2022-11-05T00:17:50.686Z,1.20
2022-11-05T00:19:52.465Z,1.15
2022-11-05T00:21:54.281Z,1.20
2022-11-05T00:23:56.161Z,1.20
2022-11-05T00:25:59.030Z,1.10
2022-11-05T00:28:01.950Z,1.13
2022-11-05T00:30:04.138Z,1.10
2022-11-05T00:32:05.890Z,1.00
2022-11-05T00:34:07.655Z,1.00
2022-11-05T00:36:10.097Z,1.15
2022-11-05T00:38:11.805Z,1.20
2022-11-05T00:40:14.180Z,1.33
2022-11-05T00:42:15.856Z,1.20
2022-11-05T00:44:17.512Z,1.00
2022-11-05T00:46:19.198Z,1.20
2022-11-05T00:48:20.990Z,1.10
2022-11-05T00:50:22.717Z,1.13
2022-11-05T00:52:24.454Z,1.23
2022-11-05T00:54:26.191Z,1.10
2022-11-05T00:56:27.876Z,1.08
2022-11-05T00:58:29.626Z,1.30
2022-11-05T01:00:32.013Z,1.35
2022-11-05T01:02:33.827Z,1.17
2022-11-05T01:04:35.696Z,1.08
2022-11-05T01:06:37.504Z,1.20
2022-11-05T01:08:39.415Z,1.10
2022-11-05T01:10:44.123Z,1.35
2022-11-05T01:12:45.897Z,1.20
2022-11-05T01:14:47.688Z,1.10
2022-11-05T01:16:49.399Z,1.30
2022-11-05T01:18:51.045Z,1.10
2022-11-05T01:20:52.753Z,1.20
2022-11-05T01:22:54.461Z,1.20
2022-11-05T01:24:56.244Z,1.25
2022-11-05T01:26:58.004Z,1.10
2022-11-05T01:28:59.831Z,1.08
2022-11-05T01:31:01.644Z,1.10
2022-11-05T01:33:03.389Z,1.20
2022-11-05T01:35:07.017Z,1.17
2022-11-05T01:37:08.714Z,1.27
2022-11-05T01:39:10.450Z,1.05
2022-11-05T01:41:12.193Z,1.10
2022-11-05T01:43:18.055Z,1.10
2022-11-05T01:45:25.738Z,1.30
2022-11-05T01:47:45.926Z,1.15
2022-11-05T01:49:47.591Z,1.25
2022-11-05T01:51:49.311Z,0.90
2022-11-05T01:54:02.210Z,1.30
2022-11-05T01:56:11.833Z,1.30
2022-11-05T01:58:15.363Z,1.20
2022-11-05T02:00:17.220Z,1.15
2022-11-05T02:02:19.268Z,1.17
2022-11-05T02:04:28.087Z,1.00
2022-11-05T02:06:30.376Z,1.17
2022-11-05T02:08:39.263Z,1.35
2022-11-05T02:10:41.262Z,1.30
2022-11-05T02:12:44.799Z,1.20
2022-11-05T02:14:46.599Z,1.30
2022-11-05T02:16:53.435Z,1.35
2022-11-05T02:19:07.190Z,1.25
2022-11-05T02:21:27.298Z,1.10
2022-11-05T02:23:35.496Z,1.10
2022-11-05T02:26:15.122Z,1.20
2022-11-05T02:28:49.388Z,1.30
2022-11-05T02:31:09.587Z,1.20
2022-11-05T02:33:22.964Z,1.30
2022-11-05T02:35:30.359Z,1.25
2022-11-05T02:37:41.625Z,1.30
2022-11-05T02:40:20.386Z,1.10
2022-11-05T02:42:36.200Z,1.23
2022-11-05T02:44:56.690Z,1.40
2022-11-05T02:47:07.179Z,1.13
2022-11-05T02:49:26.709Z,1.30
2022-11-05T02:51:32.755Z,1.30
2022-11-05T02:53:43.259Z,1.50
2022-11-05T02:55:53.502Z,1.40
2022-11-05T02:57:55.166Z,1.30
2022-11-05T03:00:01.516Z,1.40
2022-11-05T03:02:03.475Z,1.35
2022-11-05T03:04:07.180Z,1.42
2022-11-05T03:06:23.729Z,1.33
2022-11-05T03:08:35.585Z,1.20
2022-11-05T03:10:42.231Z,1.40
2022-11-05T03:12:52.837Z,1.17
2022-11-05T03:15:22.064Z,1.40
2022-11-05T03:17:35.470Z,1.48
2022-11-05T03:19:48.467Z,1.40
2022-11-05T03:22:36.793Z,1.50
2022-11-05T03:24:40.993Z,1.40
2022-11-05T03:27:18.634Z,1.50
2022-11-05T03:29:23.226Z,1.75
2022-11-05T03:31:25.041Z,1.60
2022-11-05T03:33:28.933Z,1.60
2022-11-05T03:35:34.133Z,1.45
2022-11-05T03:37:37.116Z,1.58
2022-11-05T03:39:43.744Z,1.60
2022-11-05T03:41:45.937Z,1.40
2022-11-05T03:43:50.038Z,1.60
2022-11-05T03:45:55.703Z,1.40
2022-11-05T03:47:58.906Z,1.55
2022-11-05T03:50:27.629Z,1.60
2022-11-05T03:52:31.989Z,1.40
2022-11-05T03:56:44.321Z,1.27
2022-11-05T03:58:46.164Z,1.50
2022-11-05T04:00:48.353Z,1.30
2022-11-05T04:02:50.207Z,1.52
2022-11-05T04:04:52.540Z,1.42
2022-11-05T04:06:54.241Z,1.40
2022-11-05T04:08:55.936Z,1.30
2022-11-05T04:10:57.582Z,1.48
2022-11-05T04:12:59.265Z,1.67
2022-11-05T04:15:01.109Z,1.73
2022-11-05T04:17:02.861Z,1.60
2022-11-05T04:19:04.681Z,1.67
2022-11-05T04:21:06.512Z,1.60
2022-11-05T04:23:08.382Z,2.20
2022-11-05T04:25:10.413Z,1.58
2022-11-05T04:27:12.144Z,1.50
2022-11-05T04:29:13.829Z,1.20
2022-11-05T04:31:15.683Z,1.55
2022-11-05T04:33:17.463Z,1.50
2022-11-05T04:35:19.145Z,1.60
2022-11-05T04:37:20.825Z,1.40
2022-11-05T04:39:22.606Z,1.83
2022-11-05T04:41:24.289Z,1.50
2022-11-05T04:43:25.940Z,1.70
2022-11-05T04:45:30.721Z,1.60
2022-11-05T04:47:32.387Z,1.52
2022-11-05T04:49:34.127Z,1.83
2022-11-05T04:51:35.853Z,1.42
2022-11-05T04:53:37.539Z,1.70
2022-11-05T04:55:39.313Z,1.52
2022-11-05T04:57:41.140Z,1.70
2022-11-05T04:59:42.783Z,1.65
2022-11-05T05:01:44.555Z,1.77
2022-11-05T05:03:50.105Z,1.50
2022-11-05T05:05:53.815Z,1.40
2022-11-05T05:07:55.671Z,1.40
2022-11-05T05:09:57.338Z,1.70
2022-11-05T05:11:58.996Z,1.70
2022-11-05T05:14:00.753Z,1.60
2022-11-05T05:16:06.832Z,1.58
2022-11-05T05:18:09.288Z,1.80
2022-11-05T05:20:10.986Z,1.60
2022-11-05T05:22:12.704Z,1.40
2022-11-05T05:24:16.762Z,1.63
2022-11-05T05:26:18.470Z,1.40
2022-11-05T05:28:20.166Z,2.00
2022-11-05T05:30:21.909Z,1.48
2022-11-05T05:32:23.833Z,1.45
2022-11-05T05:34:25.619Z,1.35
2022-11-05T05:36:27.366Z,1.50
2022-11-05T05:38:29.339Z,1.50
2022-11-05T05:40:31.077Z,1.25
2022-11-05T05:42:32.778Z,1.38
2022-11-05T05:44:34.506Z,1.52
2022-11-05T05:46:36.174Z,1.70
2022-11-05T05:48:37.862Z,1.60
2022-11-05T05:50:39.601Z,1.60
2022-11-05T05:52:41.740Z,1.50
2022-11-05T05:54:43.543Z,1.67
2022-11-05T05:56:45.512Z,1.40
2022-11-05T05:58:47.430Z,1.60
2022-11-05T06:00:49.622Z,1.50
2022-11-05T06:02:51.463Z,1.60
2022-11-05T06:04:53.209Z,1.40
2022-11-05T06:06:54.858Z,1.40
2022-11-05T06:08:56.650Z,1.38
2022-11-05T06:10:58.976Z,1.48
2022-11-05T06:13:00.777Z,1.30
2022-11-05T06:15:02.530Z,1.48
2022-11-05T06:17:04.217Z,1.33
2022-11-05T06:19:06.686Z,1.27
2022-11-05T06:21:10.098Z,1.30
2022-11-05T06:23:11.871Z,1.27
2022-11-05T06:25:13.857Z,1.38
2022-11-05T06:27:15.531Z,1.30
2022-11-05T06:29:17.208Z,1.40
2022-11-05T06:31:18.943Z,1.17
2022-11-05T06:33:20.828Z,1.40
2022-11-05T06:35:22.541Z,1.33
2022-11-05T06:37:24.246Z,1.20
2022-11-05T06:39:25.909Z,1.33
2022-11-05T06:41:27.647Z,1.38
2022-11-05T06:43:29.430Z,1.30
2022-11-05T06:45:31.333Z,1.90
2022-11-05T06:47:33.052Z,1.40
2022-11-05T06:49:34.848Z,1.40
2022-11-05T06:51:36.495Z,1.20
2022-11-05T06:53:38.174Z,1.40
2022-11-05T06:55:40.055Z,1.58
2022-11-05T06:57:41.761Z,1.50
2022-11-05T06:59:43.494Z,1.50
2022-11-05T07:01:45.356Z,1.10
2022-11-05T07:03:47.116Z,1.33
2022-11-05T07:05:48.844Z,1.40
2022-11-05T07:07:51.888Z,1.40
2022-11-05T07:09:53.576Z,1.63
2022-11-05T07:11:55.368Z,1.70
2022-11-05T07:13:57.124Z,1.77
2022-11-05T07:15:58.793Z,1.40
2022-11-05T07:18:01.714Z,1.30
2022-11-05T07:20:04.653Z,1.58
2022-11-05T07:22:07.886Z,1.27
2022-11-05T07:24:09.586Z,1.52
2022-11-05T07:26:11.192Z,1.33
2022-11-05T07:28:12.965Z,1.33
2022-11-05T07:30:14.750Z,1.33
2022-11-05T07:32:16.414Z,1.33
2022-11-05T07:34:18.239Z,1.67
2022-11-05T07:36:20.023Z,1.35
2022-11-05T07:38:21.651Z,1.20
2022-11-05T07:40:25.766Z,1.30
2022-11-05T07:42:27.453Z,1.48
2022-11-05T07:44:29.129Z,1.48
2022-11-05T07:46:31.062Z,1.45
2022-11-05T07:48:32.720Z,1.25
2022-11-05T07:50:35.831Z,1.35
2022-11-05T07:52:37.479Z,1.35
2022-11-05T07:54:39.238Z,1.60
2022-11-05T07:56:40.953Z,1.52
2022-11-05T07:58:42.781Z,1.20
2022-11-05T08:00:44.718Z,1.50
2022-11-05T08:03:10.317Z,1.23
2022-11-05T08:05:12.314Z,1.40
2022-11-05T08:07:14.068Z,1.73
2022-11-05T08:09:15.818Z,1.30
2022-11-05T08:11:17.552Z,1.38
2022-11-05T08:13:19.288Z,1.20
2022-11-05T08:15:21.203Z,1.00
2022-11-05T08:17:22.919Z,1.38
2022-11-05T08:19:27.290Z,1.30
2022-11-05T08:21:29.078Z,1.20
2022-11-05T08:23:31.168Z,1.05
2022-11-05T08:25:32.953Z,1.10
2022-11-05T08:27:34.681Z,1.25
2022-11-05T08:29:36.512Z,1.20
2022-11-05T08:31:41.442Z,1.10
2022-11-05T08:33:43.080Z,1.25
2022-11-05T08:35:44.876Z,1.00
2022-11-05T08:37:46.713Z,1.08
2022-11-05T08:39:48.493Z,1.40
2022-11-05T08:41:53.269Z,1.40
2022-11-05T08:43:56.066Z,1.40
2022-11-05T08:46:00.484Z,1.13
2022-11-05T08:48:15.507Z,1.08
2022-11-05T08:50:17.586Z,1.10
2022-11-05T08:52:19.274Z,1.52
2022-11-05T08:54:20.998Z,1.40
2022-11-05T08:56:22.814Z,1.27
2022-11-05T08:58:24.699Z,1.20
2022-11-05T09:00:36.481Z,1.48
2022-11-05T09:02:38.176Z,1.60
2022-11-05T09:04:39.917Z,1.30
2022-11-05T09:06:41.721Z,1.20
2022-11-05T09:08:43.489Z,1.50
2022-11-05T09:10:46.586Z,1.30
2022-11-05T09:12:48.267Z,1.30
2022-11-05T09:14:49.941Z,1.20
2022-11-05T09:16:51.825Z,1.50
2022-11-05T09:18:53.544Z,1.20
2022-11-05T09:20:55.463Z,1.00
2022-11-05T09:22:57.184Z,1.20
2022-11-05T09:24:58.925Z,1.45
2022-11-05T09:27:00.608Z,1.20
2022-11-05T09:29:02.322Z,1.02
2022-11-05T09:31:08.083Z,1.20
2022-11-05T09:33:10.635Z,1.00
2022-11-05T09:35:12.526Z,1.13
2022-11-05T09:37:14.165Z,1.13
2022-11-05T09:39:16.111Z,1.17
2022-11-05T09:41:38.929Z,1.00
2022-11-05T09:43:44.952Z,1.23
2022-11-05T09:45:48.698Z,1.10
2022-11-05T09:48:01.214Z,1.10
2022-11-05T09:50:07.460Z,1.25
2022-11-05T09:52:22.672Z,0.98
2022-11-05T09:54:26.402Z,1.10
2022-11-05T09:56:32.221Z,1.30
2022-11-05T09:58:42.404Z,1.00
2022-11-05T10:00:44.187Z,0.90
2022-11-05T10:02:54.626Z,1.10
2022-11-05T10:04:58.155Z,1.20
2022-11-05T10:07:02.188Z,1.10
2022-11-05T10:09:11.690Z,1.10
2022-11-05T10:11:28.467Z,1.00
2022-11-05T10:13:48.207Z,0.98
2022-11-05T10:16:01.349Z,1.08
2022-11-05T10:18:16.846Z,1.00
2022-11-05T10:20:30.606Z,1.20
2022-11-05T10:22:32.642Z,0.77
2022-11-05T10:24:34.350Z,1.00
2022-11-05T10:26:36.026Z,0.90
2022-11-05T10:28:37.891Z,1.10
2022-11-05T10:30:39.645Z,1.13
2022-11-05T10:32:41.543Z,1.00
2022-11-05T10:34:43.233Z,0.93
2022-11-05T10:36:44.906Z,1.10
2022-11-05T10:38:46.560Z,1.15
2022-11-05T10:41:34.529Z,0.90
2022-11-05T10:43:50.320Z,1.00
2022-11-05T10:46:29.520Z,1.00
2022-11-05T10:48:44.151Z,0.90
2022-11-05T10:50:46.071Z,1.05
2022-11-05T10:53:28.616Z,1.30
2022-11-05T10:55:36.213Z,1.05
2022-11-05T10:57:39.530Z,1.17
2022-11-05T10:59:41.223Z,0.95
2022-11-05T11:01:43.017Z,0.90
2022-11-05T11:03:49.320Z,1.25
2022-11-05T11:05:50.970Z,1.15
2022-11-05T11:08:13.936Z,1.20
2022-11-05T11:10:22.082Z,1.10
2022-11-05T11:12:24.439Z,1.08
2022-11-05T11:14:26.273Z,1.00
2022-11-05T11:16:29.449Z,1.08
2022-11-05T11:18:40.630Z,1.10
2022-11-05T11:20:44.641Z,1.00
2022-11-05T11:23:02.560Z,1.05
2022-11-05T11:25:19.144Z,1.00
2022-11-05T11:27:26.288Z,1.10
2022-11-05T11:29:28.398Z,0.90
2022-11-05T11:31:31.488Z,1.00
2022-11-05T11:33:33.188Z,1.00
2022-11-05T11:35:36.566Z,1.00
2022-11-05T11:37:39.087Z,1.00
2022-11-05T11:39:40.945Z,0.98
2022-11-05T11:41:43.181Z,1.10
2022-11-05T11:43:44.985Z,0.93
2022-11-05T11:45:48.314Z,1.27
2022-11-05T11:47:50.038Z,1.02
2022-11-05T11:49:53.602Z,1.05
2022-11-05T11:51:55.540Z,1.08
2022-11-05T11:53:58.457Z,1.10
2022-11-05T11:56:12.481Z,0.90
2022-11-05T11:58:14.213Z,0.90
2022-11-05T12:00:16.613Z,0.98
2022-11-05T12:03:02.583Z,1.10
2022-11-05T12:07:27.943Z,1.10
2022-11-05T12:09:38.616Z,1.02
2022-11-05T12:11:47.184Z,1.20
2022-11-05T12:14:11.160Z,1.00
2022-11-05T12:16:38.631Z,1.10
2022-11-05T12:18:48.768Z,1.00
2022-11-05T12:20:55.374Z,1.00
2022-11-05T12:23:37.095Z,1.10
2022-11-05T12:25:53.445Z,1.00
2022-11-05T12:28:25.580Z,1.10
2022-11-05T12:30:27.319Z,1.00
2022-11-05T12:32:44.197Z,1.00
2022-11-05T12:34:58.627Z,1.10
2022-11-05T12:37:22.012Z,1.08
2022-11-05T12:39:41.975Z,0.80
2022-11-05T12:41:56.373Z,0.98
2022-11-05T12:44:10.189Z,1.20
2022-11-05T12:46:23.541Z,1.00
2022-11-05T12:48:39.727Z,1.13
2022-11-05T12:50:45.092Z,1.30
2022-11-05T12:53:03.731Z,1.30
2022-11-05T12:55:18.427Z,1.30
2022-11-05T12:57:20.283Z,0.95
2022-11-05T12:59:26.717Z,1.02
2022-11-05T13:01:43.843Z,1.00
2022-11-05T13:03:56.210Z,1.20
2022-11-05T13:06:10.403Z,1.10
2022-11-05T13:08:27.739Z,1.10
2022-11-05T13:10:37.269Z,1.15
2022-11-05T13:12:39.985Z,1.10
2022-11-05T13:14:45.530Z,1.30
2022-11-05T13:16:52.815Z,1.10
2022-11-05T13:19:07.131Z,1.00
2022-11-05T13:21:09.077Z,1.10
2022-11-05T13:23:14.232Z,1.13
2022-11-05T13:25:21.198Z,1.20
2022-11-05T13:27:41.427Z,1.02
2022-11-05T13:29:57.131Z,0.95
2022-11-05T13:32:23.902Z,1.20
2022-11-05T13:34:26.013Z,1.02
2022-11-05T13:36:55.415Z,1.15
2022-11-05T13:39:07.234Z,1.20
2022-11-05T13:41:14.838Z,1.05
2022-11-05T13:43:25.184Z,1.15
2022-11-05T13:46:01.417Z,1.30
2022-11-05T13:48:47.487Z,1.20
2022-11-05T13:51:12.220Z,1.00
2022-11-05T13:53:50.973Z,1.30
2022-11-05T13:56:17.374Z,1.10
2022-11-05T13:58:43.414Z,1.00
2022-11-05T14:01:07.580Z,1.20
2022-11-05T14:03:19.564Z,1.40
2022-11-05T14:05:33.289Z,1.10
2022-11-05T14:07:37.057Z,1.33
2022-11-05T14:09:38.879Z,1.30
2022-11-05T14:11:42.045Z,1.40
2022-11-05T14:13:44.247Z,1.40
2022-11-05T14:16:08.895Z,1.20
2022-11-05T14:18:49.293Z,1.13
2022-11-05T14:21:04.575Z,1.30
2022-11-05T14:23:21.543Z,1.30
2022-11-05T14:25:23.300Z,1.20
2022-11-05T14:27:37.226Z,1.27
2022-11-05T14:29:48.946Z,1.20
2022-11-05T14:32:08.188Z,1.38
2022-11-05T14:34:10.749Z,1.17
2022-11-05T14:36:21.194Z,1.23
2022-11-05T14:38:25.148Z,1.30
2022-11-05T14:40:39.726Z,1.65
2022-11-05T14:42:42.539Z,1.50
2022-11-05T14:45:08.404Z,1.40
2022-11-05T14:47:19.970Z,1.40
2022-11-05T14:49:48.989Z,1.63
2022-11-05T14:51:52.572Z,1.40
2022-11-05T14:54:16.122Z,1.38
2022-11-05T14:56:18.446Z,1.60
2022-11-05T14:58:31.536Z,1.60
2022-11-05T15:00:33.174Z,1.55
2022-11-05T15:02:36.820Z,1.48
2022-11-05T15:04:38.777Z,1.33
2022-11-05T15:06:40.879Z,1.45
2022-11-05T15:08:48.615Z,1.70
2022-11-05T15:10:50.400Z,1.52
2022-11-05T15:12:54.206Z,1.33
2022-11-05T15:15:03.519Z,1.67
2022-11-05T15:17:25.555Z,1.63
2022-11-05T15:19:34.756Z,1.50
2022-11-05T15:21:36.524Z,1.50
2022-11-05T15:23:53.012Z,1.50
2022-11-05T15:26:14.842Z,1.55
2022-11-05T15:28:38.403Z,1.50
2022-11-05T15:30:49.846Z,1.45
2022-11-05T15:32:51.876Z,1.80
2022-11-05T15:34:54.665Z,1.30
2022-11-05T15:37:16.928Z,1.50
2022-11-05T15:39:41.178Z,1.40
2022-11-05T15:41:43.148Z,1.53
2022-11-05T15:43:48.037Z,1.40
2022-11-05T15:46:02.565Z,1.50
2022-11-05T15:48:13.689Z,1.40
2022-11-05T15:50:15.616Z,1.70
2022-11-05T15:52:19.665Z,1.77
2022-11-05T15:54:30.176Z,1.40
2022-11-05T15:56:32.359Z,1.42
2022-11-05T15:58:37.523Z,1.85
2022-11-05T16:00:40.008Z,1.50
2022-11-05T16:02:41.942Z,1.70
2022-11-05T16:04:48.468Z,1.70
2022-11-05T16:06:52.757Z,1.70
2022-11-05T16:08:54.436Z,1.50
2022-11-05T16:10:58.021Z,1.67
2022-11-05T16:13:22.548Z,1.58
2022-11-05T16:15:26.022Z,1.45
2022-11-05T16:17:30.257Z,1.77
2022-11-05T16:21:54.895Z,1.50
2022-11-05T16:23:59.994Z,1.65
2022-11-05T16:26:01.768Z,1.60
2022-11-05T16:28:04.033Z,1.50
2022-11-05T16:30:06.560Z,1.50
2022-11-05T16:32:29.759Z,1.55
2022-11-05T16:34:40.219Z,1.40
2022-11-05T16:36:41.857Z,1.88
2022-11-05T16:38:43.800Z,1.58
2022-11-05T16:40:45.700Z,1.50
2022-11-05T16:42:47.558Z,1.63
2022-11-05T16:44:55.092Z,1.65
2022-11-05T16:46:56.742Z,1.70
2022-11-05T16:48:58.405Z,1.50
2022-11-05T16:51:00.149Z,1.45
2022-11-05T16:53:01.892Z,1.50
2022-11-05T16:55:03.807Z,1.70
2022-11-05T16:57:08.019Z,1.52
2022-11-05T17:01:18.302Z,1.60
2022-11-05T17:03:20.275Z,1.60
2022-11-05T17:05:27.648Z,1.80
2022-11-05T17:07:29.335Z,1.50
2022-11-05T17:09:31.077Z,1.60
2022-11-05T17:11:32.833Z,1.70
2022-11-05T17:13:34.556Z,1.70
2022-11-05T17:15:36.284Z,1.88
2022-11-05T17:17:38.010Z,1.63
2022-11-05T17:19:39.819Z,1.63
2022-11-05T17:21:41.997Z,1.70
2022-11-05T17:23:44.453Z,1.58
2022-11-05T17:25:48.565Z,1.40
2022-11-05T17:27:50.330Z,1.70
2022-11-05T17:29:52.095Z,1.67
2022-11-05T17:31:53.869Z,1.58
2022-11-05T17:33:57.686Z,1.52
2022-11-05T17:35:59.542Z,1.58
2022-11-05T17:38:01.342Z,1.60
2022-11-05T17:40:04.466Z,1.50
2022-11-05T17:42:06.227Z,1.80
2022-11-05T17:44:09.969Z,1.70
2022-11-05T17:46:13.353Z,1.70
2022-11-05T17:48:15.482Z,1.50
2022-11-05T17:50:17.291Z,1.52
2022-11-05T17:52:19.077Z,1.60
2022-11-05T17:54:21.106Z,1.65
2022-11-05T17:56:33.446Z,1.52
2022-11-05T17:58:36.957Z,1.67
2022-11-05T18:00:38.809Z,1.65
2022-11-05T18:02:40.565Z,1.70
2022-11-05T18:04:42.251Z,1.70
2022-11-05T18:06:44.063Z,1.63
2022-11-05T18:08:45.997Z,1.80
2022-11-05T18:10:47.720Z,1.50
2022-11-05T18:12:49.442Z,1.55
2022-11-05T18:14:51.081Z,1.50
2022-11-05T18:16:52.729Z,1.70
2022-11-05T18:18:54.550Z,1.50
2022-11-05T18:20:59.525Z,1.80
2022-11-05T18:23:01.364Z,1.52
2022-11-05T18:25:03.015Z,1.90
2022-11-05T18:27:04.714Z,1.98
2022-11-05T18:29:06.395Z,1.67
2022-11-05T18:31:18.029Z,1.92
2022-11-05T18:33:20.320Z,1.60
2022-11-05T18:35:21.985Z,1.90
2022-11-05T18:37:23.638Z,1.80
2022-11-05T18:39:25.503Z,1.70
2022-11-05T18:41:27.594Z,1.90
2022-11-05T18:43:29.258Z,1.52
2022-11-05T18:45:30.896Z,1.75
2022-11-05T18:47:33.167Z,2.10
2022-11-05T18:49:34.962Z,2.03
2022-11-05T18:51:36.729Z,2.10
2022-11-05T18:53:38.819Z,1.77
2022-11-05T18:55:40.617Z,1.98
2022-11-05T18:57:42.346Z,2.00
2022-11-05T18:59:44.010Z,1.70
2022-11-05T19:01:46.734Z,1.90
2022-11-05T19:03:49.084Z,1.85
2022-11-05T19:05:50.847Z,1.80
2022-11-05T19:07:52.452Z,1.98
2022-11-05T19:09:54.145Z,1.90
2022-11-05T19:11:55.822Z,1.90
2022-11-05T19:13:57.617Z,1.98
2022-11-05T19:15:59.320Z,2.10
2022-11-05T19:18:01.040Z,1.90
2022-11-05T19:20:03.293Z,2.03
2022-11-05T19:22:05.056Z,1.92
2022-11-05T19:24:07.691Z,2.10
2022-11-05T19:26:11.817Z,2.08
2022-11-05T19:28:13.822Z,2.08
2022-11-05T19:30:15.913Z,2.10
2022-11-05T19:32:17.590Z,2.15
2022-11-05T19:34:19.339Z,1.85
2022-11-05T19:36:21.951Z,2.03
2022-11-05T19:38:23.881Z,2.25
2022-11-05T19:40:25.500Z,2.03
2022-11-05T19:42:27.215Z,2.10
2022-11-05T19:44:29.438Z,2.10
2022-11-05T19:46:31.237Z,2.10
2022-11-05T19:48:33.205Z,1.90
2022-11-05T19:50:35.086Z,2.00
2022-11-05T19:52:36.731Z,2.25
2022-11-05T19:54:39.693Z,2.30
2022-11-05T19:56:43.186Z,2.20
2022-11-05T19:58:45.123Z,2.08
2022-11-05T20:00:46.867Z,1.80
2022-11-05T20:02:48.799Z,2.20
2022-11-05T20:04:50.670Z,2.10
2022-11-05T20:06:52.321Z,2.10
2022-11-05T20:09:20.143Z,1.80
2022-11-05T20:11:16.187Z,2.03
2022-11-05T20:13:19.933Z,2.20
2022-11-05T20:15:21.860Z,2.00
2022-11-05T20:17:23.609Z,2.22
2022-11-05T20:19:25.276Z,2.10
2022-11-05T20:21:26.926Z,2.20
2022-11-05T20:23:28.553Z,2.00
2022-11-05T20:25:30.257Z,2.22
2022-11-05T20:27:31.942Z,1.83
2022-11-05T20:29:35.590Z,1.90
2022-11-05T20:31:37.619Z,1.98
2022-11-05T20:33:39.763Z,2.15
2022-11-05T20:35:41.585Z,1.90
2022-11-05T20:37:43.217Z,1.98
2022-11-05T20:39:44.844Z,2.10
2022-11-05T20:41:46.461Z,2.00
2022-11-05T20:43:48.144Z,2.10
2022-11-05T20:45:49.760Z,2.30
2022-11-05T20:47:51.353Z,1.80
2022-11-05T20:49:53.019Z,2.10
2022-11-05T20:51:54.809Z,2.00
2022-11-05T20:53:57.698Z,2.15
2022-11-05T20:56:02.405Z,2.13
2022-11-05T20:58:06.883Z,2.60
2022-11-05T21:00:09.102Z,2.22
2022-11-05T21:02:11.715Z,2.15
2022-11-05T21:04:13.584Z,2.20
2022-11-05T21:06:15.284Z,2.10
2022-11-05T21:08:16.977Z,2.25
2022-11-05T21:10:18.736Z,2.55
2022-11-05T21:12:20.485Z,2.30
2022-11-05T21:14:22.148Z,2.90
2022-11-05T21:16:23.823Z,2.45
2022-11-05T21:18:27.399Z,2.42
2022-11-05T21:20:29.173Z,2.15
2022-11-05T21:22:30.882Z,2.70
2022-11-05T21:24:33.381Z,2.80
2022-11-05T21:26:35.179Z,2.00
2022-11-05T21:28:37.742Z,2.50
2022-11-05T21:30:40.921Z,2.05
2022-11-05T21:32:42.688Z,2.20
2022-11-05T21:34:44.424Z,2.20
2022-11-05T21:36:46.139Z,2.33
2022-11-05T21:38:47.929Z,2.30
2022-11-05T21:40:49.579Z,2.13
2022-11-05T21:42:51.290Z,2.40
2022-11-05T21:44:57.714Z,2.50
2022-11-05T21:47:01.888Z,2.38
2022-11-05T21:49:04.129Z,2.08
2022-11-05T21:51:05.942Z,2.20
2022-11-05T21:53:13.139Z,2.28
2022-11-05T21:55:14.843Z,2.13
2022-11-05T21:57:17.020Z,2.33
2022-11-05T21:59:21.632Z,2.10
2022-11-05T22:01:23.523Z,2.22
2022-11-05T22:03:25.491Z,2.10
2022-11-05T22:05:27.392Z,2.42
2022-11-05T22:07:31.542Z,2.20
2022-11-05T22:09:33.280Z,2.10
2022-11-05T22:11:36.289Z,2.13
2022-11-05T22:13:37.982Z,2.15
2022-11-05T22:15:39.693Z,2.17
2022-11-05T22:17:46.240Z,2.20
2022-11-05T22:19:48.806Z,2.05
2022-11-05T22:21:50.602Z,2.20
2022-11-05T22:23:52.848Z,2.00
2022-11-05T22:26:01.086Z,2.15
2022-11-05T22:28:02.873Z,2.30
2022-11-05T22:30:05.068Z,2.10
2022-11-05T22:32:06.728Z,2.20
2022-11-05T22:34:09.147Z,2.25
2022-11-05T22:36:11.070Z,2.10
2022-11-05T22:38:12.959Z,2.30
2022-11-05T22:40:14.843Z,2.03
2022-11-05T22:42:16.589Z,2.10
2022-11-05T22:44:18.347Z,2.00
2022-11-05T22:46:21.869Z,2.22
2022-11-05T22:48:23.536Z,2.17
2022-11-05T22:50:25.172Z,2.15
2022-11-05T22:52:26.899Z,2.00
2022-11-05T22:54:28.604Z,1.98
2022-11-05T22:56:33.232Z,2.30
2022-11-05T22:58:34.939Z,2.40
2022-11-05T23:00:37.315Z,2.15
2022-11-05T23:02:39.227Z,2.28
2022-11-05T23:04:41.222Z,2.10
2022-11-05T23:06:42.947Z,2.20
2022-11-05T23:08:44.631Z,2.10
2022-11-05T23:10:46.295Z,2.00
2022-11-05T23:12:47.982Z,2.40
2022-11-05T23:14:49.851Z,1.90
2022-11-05T23:16:51.483Z,2.17
2022-11-05T23:18:53.168Z,1.92
2022-11-05T23:20:54.841Z,2.15
2022-11-05T23:22:57.400Z,1.92
2022-11-05T23:24:59.146Z,2.20
2022-11-05T23:27:00.831Z,2.15
2022-11-05T23:29:02.608Z,2.20
2022-11-05T23:31:04.239Z,2.08
2022-11-05T23:33:06.000Z,1.90
2022-11-05T23:35:08.117Z,1.92
2022-11-05T23:37:09.827Z,2.20
2022-11-05T23:39:11.422Z,2.17
2022-11-05T23:41:13.167Z,2.38
2022-11-05T23:43:15.020Z,2.10
2022-11-05T23:45:16.875Z,1.77
2022-11-05T23:47:18.656Z,1.90
2022-11-05T23:49:20.255Z,2.17
2022-11-05T23:51:21.899Z,1.80
2022-11-05T23:53:23.734Z,1.77
2022-11-05T23:55:25.527Z,1.90
2022-11-05T23:57:27.166Z,1.85
2022-11-05T23:59:28.827Z,1.90
